Time;durP1;ratioP1;P1;durP2;ratioP2;P2;SDS_P1;SDS_P2;PMS_P1;PMS_P2;Temp;Humidity;BMP_temperature;BMP_pressure;BME280_temperature;BME280_humidity;BME280_pressure;Samples;Min_cycle;Max_cycle;Signal;HPM_P1;HPM_P2
2023/12/06 00:00:37;;;;;;;47.87;26.13;;;2.60;99.90;;;;;;5034810;28;20029;-81
2023/12/06 00:03:03;;;;;;;45.63;24.13;;;2.60;99.90;;;;;;5052949;28;20441;-81
2023/12/06 00:05:29;;;;;;;49.90;26.50;;;2.60;99.90;;;;;;5052784;28;20025;-81
2023/12/06 00:07:55;;;;;;;44.67;26.03;;;2.60;99.90;;;;;;5051694;28;20071;-81
2023/12/06 00:10:21;;;;;;;44.37;24.93;;;2.60;99.90;;;;;;5051627;28;20025;-80
2023/12/06 00:12:46;;;;;;;44.03;23.60;;;2.60;99.90;;;;;;5034998;28;20496;-81
2023/12/06 00:15:15;;;;;;;47.10;25.10;;;2.60;99.90;;;;;;5068315;28;20115;-81
2023/12/06 00:17:40;;;;;;;44.33;24.83;;;2.60;99.90;;;;;;5034889;28;20033;-81
2023/12/06 00:20:07;;;;;;;46.40;25.77;;;2.60;99.90;;;;;;5052688;28;20088;-81
2023/12/06 00:22:32;;;;;;;45.53;25.70;;;2.70;99.90;;;;;;5051572;28;20033;-81
2023/12/06 00:24:58;;;;;;;43.27;25.57;;;2.60;99.90;;;;;;5052762;28;20099;-81
2023/12/06 00:27:24;;;;;;;41.90;25.23;;;2.60;99.90;;;;;;5052450;28;20045;-80
2023/12/06 00:29:49;;;;;;;42.93;24.73;;;2.60;99.90;;;;;;5052639;28;20132;-81
2023/12/06 00:32:15;;;;;;;49.27;28.60;;;2.70;99.90;;;;;;5051377;28;20033;-81
2023/12/06 00:34:40;;;;;;;46.13;25.17;;;2.60;99.90;;;;;;5054662;28;20040;-81
2023/12/06 00:37:06;;;;;;;45.40;25.27;;;2.60;99.90;;;;;;5038716;28;20413;-81
2023/12/06 00:39:31;;;;;;;47.37;26.73;;;2.70;99.90;;;;;;5056455;28;20037;-81
2023/12/06 00:41:57;;;;;;;43.67;25.57;;;2.70;99.90;;;;;;5038364;28;20040;-80
2023/12/06 00:44:23;;;;;;;45.30;24.77;;;2.60;99.90;;;;;;5055122;28;20511;-81
2023/12/06 00:46:49;;;;;;;45.90;26.57;;;2.70;99.90;;;;;;5038694;28;20036;-80
2023/12/06 00:49:18;;;;;;;44.90;25.10;;;2.70;99.90;;;;;;5056415;28;20528;-81
2023/12/06 00:51:43;;;;;;;46.63;26.57;;;2.70;99.90;;;;;;5056661;28;20033;-81
2023/12/06 00:54:09;;;;;;;51.60;27.80;;;2.70;99.90;;;;;;5038243;28;20132;-80
2023/12/06 00:56:35;;;;;;;49.93;28.77;;;2.70;99.90;;;;;;5056328;28;20033;-80
2023/12/06 00:59:00;;;;;;;43.90;25.03;;;2.70;99.90;;;;;;5038318;28;20064;-80
2023/12/06 01:01:26;;;;;;;48.37;26.63;;;2.70;99.90;;;;;;5038213;28;20501;-81
2023/12/06 01:03:52;;;;;;;44.13;24.97;;;2.80;99.90;;;;;;5056231;28;20116;-80
2023/12/06 01:06:17;;;;;;;51.90;27.73;;;2.70;99.90;;;;;;5056222;28;20111;-80
2023/12/06 01:08:44;;;;;;;48.90;26.27;;;2.70;99.90;;;;;;5037895;28;20037;-80
2023/12/06 01:11:09;;;;;;;47.60;26.53;;;2.70;99.90;;;;;;5056064;28;20029;-80
2023/12/06 01:13:35;;;;;;;47.40;26.20;;;2.70;99.90;;;;;;5071101;28;20509;-81
2023/12/06 01:16:00;;;;;;;47.33;25.60;;;2.70;99.90;;;;;;5055746;28;20108;-81
2023/12/06 01:18:26;;;;;;;43.57;25.87;;;2.80;99.90;;;;;;5071662;28;20039;-81
2023/12/06 01:20:51;;;;;;;44.93;26.33;;;2.80;99.90;;;;;;5054815;28;20033;-80
2023/12/06 01:23:17;;;;;;;47.87;26.80;;;2.80;99.90;;;;;;5055917;28;20033;-80
2023/12/06 01:25:43;;;;;;;49.37;26.40;;;2.80;99.90;;;;;;5070860;28;20524;-80
2023/12/06 01:28:08;;;;;;;47.50;26.87;;;2.80;99.90;;;;;;5055737;28;20040;-80
2023/12/06 01:30:34;;;;;;;43.93;24.60;;;2.90;99.90;;;;;;5037584;28;20079;-80
2023/12/06 01:33:00;;;;;;;49.20;25.97;;;2.80;99.90;;;;;;5055961;28;20024;-80
2023/12/06 01:35:26;;;;;;;45.07;25.17;;;2.80;99.90;;;;;;5055687;28;20076;-80
2023/12/06 01:37:51;;;;;;;45.47;25.60;;;2.80;99.90;;;;;;5055600;28;20047;-81
2023/12/06 01:40:17;;;;;;;44.77;25.60;;;2.90;99.90;;;;;;5055010;28;20507;-81
2023/12/06 01:42:46;;;;;;;46.70;25.97;;;2.90;99.90;;;;;;5037218;28;20033;-80
2023/12/06 01:45:11;;;;;;;48.30;25.37;;;2.90;99.90;;;;;;5037152;28;20065;-80
2023/12/06 01:47:38;;;;;;;46.20;25.93;;;2.90;99.90;;;;;;5055134;28;20103;-80
2023/12/06 01:50:05;;;;;;;42.17;24.37;;;2.90;99.90;;;;;;5054148;28;20064;-81
2023/12/06 01:52:31;;;;;;;46.07;27.13;;;3.00;99.90;;;;;;5055224;28;20060;-80
2023/12/06 01:54:58;;;;;;;45.87;25.97;;;3.00;99.90;;;;;;5054924;28;20499;-81
2023/12/06 01:57:28;;;;;;;46.47;25.30;;;3.00;99.90;;;;;;5037261;28;20029;-80
2023/12/06 01:59:55;;;;;;;46.60;25.13;;;3.10;99.90;;;;;;5053813;28;20025;-80
2023/12/06 02:02:21;;;;;;;47.60;26.00;;;3.00;99.90;;;;;;5053795;28;20021;-80
2023/12/06 02:04:47;;;;;;;43.20;24.30;;;3.00;99.90;;;;;;5053431;28;20404;-80
2023/12/06 02:07:13;;;;;;;48.23;25.57;;;3.00;99.90;;;;;;5037068;28;20566;-80
2023/12/06 02:09:39;;;;;;;49.23;27.60;;;3.00;99.90;;;;;;5054825;28;20489;-80
2023/12/06 02:12:05;;;;;;;50.27;26.30;;;3.10;99.90;;;;;;5054968;28;20040;-80
2023/12/06 02:14:34;;;;;;;46.93;26.33;;;3.10;99.90;;;;;;5053540;28;20029;-81
2023/12/06 02:17:04;;;;;;;49.80;26.33;;;3.10;99.90;;;;;;5053469;28;20029;-80
2023/12/06 02:19:31;;;;;;;51.43;28.37;;;3.10;99.90;;;;;;5054719;28;20501;-80
2023/12/06 02:21:58;;;;;;;45.63;24.90;;;3.10;99.90;;;;;;5036937;28;20033;-81
2023/12/06 02:24:27;;;;;;;47.80;25.77;;;3.20;99.90;;;;;;5053198;28;20040;-80
2023/12/06 02:26:54;;;;;;;48.27;25.80;;;3.20;99.90;;;;;;5053049;28;20520;-81
2023/12/06 02:29:20;;;;;;;46.17;26.47;;;3.20;99.90;;;;;;5053358;28;20052;-80
2023/12/06 02:31:45;;;;;;;49.83;27.27;;;3.20;99.90;;;;;;5053347;28;20159;-81
2023/12/06 02:34:17;;;;;;;54.73;28.27;;;3.20;99.90;;;;;;5054472;28;20059;-80
2023/12/06 02:36:48;;;;;;;53.40;26.97;;;3.20;99.90;;;;;;5036433;28;20025;-81
2023/12/06 02:39:16;;;;;;;48.13;26.83;;;3.20;99.90;;;;;;5052704;28;20036;-81
2023/12/06 02:41:41;;;;;;;51.47;26.30;;;3.30;99.90;;;;;;5054073;28;20021;-81
2023/12/06 02:44:07;;;;;;;54.77;29.43;;;3.20;99.90;;;;;;5054745;28;20044;-81
2023/12/06 02:46:35;;;;;;;53.50;28.23;;;3.30;99.90;;;;;;5036711;28;20021;-81
2023/12/06 02:49:01;;;;;;;51.50;28.40;;;3.20;99.90;;;;;;5053824;28;20623;-81
2023/12/06 02:51:27;;;;;;;50.60;27.10;;;3.30;99.90;;;;;;5054091;28;20115;-81
2023/12/06 02:53:52;;;;;;;50.33;27.63;;;3.20;99.90;;;;;;5053728;28;20052;-81
2023/12/06 02:56:18;;;;;;;52.73;29.97;;;3.30;99.90;;;;;;5052764;28;20033;-81
2023/12/06 02:58:43;;;;;;;50.70;29.20;;;3.30;99.90;;;;;;5052943;28;20043;-81
2023/12/06 03:01:09;;;;;;;49.77;27.87;;;3.30;99.90;;;;;;5036034;28;20033;-81
2023/12/06 03:03:35;;;;;;;46.57;25.10;;;3.30;99.90;;;;;;5053944;28;20037;-81
2023/12/06 03:06:02;;;;;;;47.57;26.40;;;3.30;99.90;;;;;;5054337;28;20535;-81
2023/12/06 03:08:27;;;;;;;47.00;25.33;;;3.30;99.90;;;;;;5052403;28;20409;-80
2023/12/06 03:10:53;;;;;;;47.93;26.60;;;3.40;99.90;;;;;;5053881;28;20033;-80
2023/12/06 03:13:18;;;;;;;49.73;27.03;;;3.30;99.90;;;;;;5052319;28;20033;-81
2023/12/06 03:15:44;;;;;;;49.40;27.23;;;3.40;99.90;;;;;;5053868;28;20120;-80
2023/12/06 03:18:10;;;;;;;49.27;25.93;;;3.40;99.90;;;;;;5035832;28;20128;-81
2023/12/06 03:20:35;;;;;;;51.40;26.37;;;3.40;99.90;;;;;;5053716;28;20025;-80
2023/12/06 03:23:01;;;;;;;47.47;26.63;;;3.40;99.90;;;;;;5035839;28;20112;-81
2023/12/06 03:25:26;;;;;;;48.90;27.17;;;3.40;99.90;;;;;;5053434;28;20396;-81
2023/12/06 03:27:53;;;;;;;52.23;27.73;;;3.40;99.90;;;;;;5053368;28;20090;-81
2023/12/06 03:30:19;;;;;;;49.20;26.00;;;3.50;99.90;;;;;;5035689;28;20032;-81
2023/12/06 03:32:44;;;;;;;43.67;25.00;;;3.40;99.90;;;;;;5035559;28;20037;-81
2023/12/06 03:35:10;;;;;;;45.33;25.53;;;3.40;99.90;;;;;;5068551;28;20032;-81
2023/12/06 03:37:35;;;;;;;48.50;26.50;;;3.50;99.90;;;;;;5053206;28;20481;-81
2023/12/06 03:40:01;;;;;;;48.33;25.97;;;3.50;99.90;;;;;;5053299;28;20037;-81
2023/12/06 03:42:27;;;;;;;46.43;25.33;;;3.40;99.90;;;;;;5035184;28;20037;-81
2023/12/06 03:44:52;;;;;;;46.97;25.67;;;3.50;99.90;;;;;;5053486;28;20428;-81
2023/12/06 03:47:18;;;;;;;45.17;25.23;;;3.50;99.90;;;;;;5052073;28;20078;-81
2023/12/06 03:49:43;;;;;;;44.97;24.37;;;3.50;99.90;;;;;;5052900;28;20041;-81
2023/12/06 03:52:09;;;;;;;48.43;25.07;;;3.50;99.90;;;;;;5035107;28;20036;-81
2023/12/06 03:54:35;;;;;;;46.63;23.87;;;3.50;99.90;;;;;;5052923;28;20045;-81
2023/12/06 03:57:01;;;;;;;45.40;24.90;;;3.50;99.90;;;;;;5051865;28;20485;-81
2023/12/06 03:59:27;;;;;;;45.07;24.80;;;3.50;99.90;;;;;;5052773;28;20049;-81
2023/12/06 04:01:52;;;;;;;39.63;23.37;;;3.60;99.90;;;;;;5051717;28;20435;-80
2023/12/06 04:04:18;;;;;;;40.80;21.67;;;3.60;99.90;;;;;;5052934;28;20041;-81
2023/12/06 04:06:43;;;;;;;35.37;20.23;;;3.60;99.90;;;;;;5034648;28;20033;-81
2023/12/06 04:09:10;;;;;;;37.00;20.87;;;3.70;99.90;;;;;;5034675;28;20033;-81
2023/12/06 04:11:37;;;;;;;43.27;23.90;;;3.60;99.90;;;;;;5035011;28;20025;-81
2023/12/06 04:14:03;;;;;;;43.27;24.83;;;3.70;99.90;;;;;;5068274;28;20053;-81
2023/12/06 04:16:30;;;;;;;40.97;23.30;;;3.70;99.90;;;;;;5068215;28;20032;-81
2023/12/06 04:18:55;;;;;;;38.07;22.40;;;3.70;99.90;;;;;;5052017;28;20088;-81
2023/12/06 04:21:21;;;;;;;43.90;24.23;;;3.70;99.90;;;;;;5052442;28;20066;-81
2023/12/06 04:23:48;;;;;;;39.63;23.90;;;3.70;99.90;;;;;;5051671;28;20044;-81
2023/12/06 04:26:14;;;;;;;45.33;25.63;;;3.70;99.90;;;;;;5052770;28;20033;-81
2023/12/06 04:28:40;;;;;;;37.73;24.13;;;3.70;99.90;;;;;;5034898;28;20037;-81
2023/12/06 04:31:06;;;;;;;40.27;23.90;;;3.70;99.90;;;;;;5051497;28;20033;-81
2023/12/06 04:33:31;;;;;;;38.13;21.90;;;3.70;99.90;;;;;;5034828;28;20067;-81
2023/12/06 04:35:57;;;;;;;39.90;22.77;;;3.70;99.90;;;;;;5050865;28;20585;-80
2023/12/06 04:38:23;;;;;;;37.63;22.63;;;3.70;99.90;;;;;;5052782;28;20119;-81
2023/12/06 04:40:49;;;;;;;38.03;23.00;;;3.70;99.90;;;;;;5051133;28;20064;-81
2023/12/06 04:43:16;;;;;;;38.43;22.90;;;3.70;99.90;;;;;;5052676;28;20371;-81
2023/12/06 04:45:42;;;;;;;39.50;24.10;;;3.70;99.90;;;;;;5051356;28;20493;-81
2023/12/06 04:48:07;;;;;;;38.73;23.27;;;3.70;99.90;;;;;;5051106;28;20032;-81
2023/12/06 04:50:33;;;;;;;37.23;22.67;;;3.80;99.90;;;;;;5053776;28;20029;-81
2023/12/06 04:52:59;;;;;;;39.87;23.13;;;3.70;99.90;;;;;;5036271;28;20048;-81
2023/12/06 04:55:24;;;;;;;39.97;23.50;;;3.80;99.90;;;;;;5052776;28;20035;-81
2023/12/06 04:57:50;;;;;;;36.93;21.03;;;3.70;99.90;;;;;;5052496;28;20485;-81
2023/12/06 05:00:17;;;;;;;36.90;22.87;;;3.80;99.90;;;;;;5052151;28;20029;-81
2023/12/06 05:02:43;;;;;;;35.73;21.47;;;3.80;99.90;;;;;;5051178;28;20033;-81
2023/12/06 05:05:08;;;;;;;36.70;20.97;;;3.80;99.90;;;;;;5045901;28;20397;-81
2023/12/06 05:07:34;;;;;;;37.10;22.03;;;3.80;99.90;;;;;;5032908;28;20038;-81
2023/12/06 05:09:59;;;;;;;35.03;21.53;;;3.80;99.90;;;;;;5032017;28;20508;-81
2023/12/06 05:12:25;;;;;;;38.37;20.97;;;3.90;99.90;;;;;;5032528;28;20033;-81
2023/12/06 05:14:51;;;;;;;34.67;20.00;;;3.90;99.90;;;;;;5021267;28;20039;-81
2023/12/06 05:17:16;;;;;;;37.43;20.27;;;3.90;99.90;;;;;;5014867;28;20029;-81
2023/12/06 05:19:42;;;;;;;36.83;21.53;;;3.90;99.90;;;;;;5030238;28;20053;-81
2023/12/06 05:22:07;;;;;;;32.13;18.90;;;3.90;99.90;;;;;;5034924;28;20029;-81
2023/12/06 05:24:33;;;;;;;35.30;21.07;;;3.90;99.90;;;;;;5018102;28;20453;-81
2023/12/06 05:26:59;;;;;;;32.13;20.00;;;3.90;99.90;;;;;;5035829;28;20481;-82
2023/12/06 05:29:24;;;;;;;35.40;20.00;;;3.90;99.90;;;;;;5018052;28;20029;-81
2023/12/06 05:31:50;;;;;;;32.47;20.20;;;3.90;99.90;;;;;;5018089;28;20041;-81
2023/12/06 05:34:15;;;;;;;37.67;20.67;;;3.90;99.90;;;;;;5035397;28;20069;-81
2023/12/06 05:36:41;;;;;;;34.00;19.47;;;4.00;99.90;;;;;;5034380;28;20629;-82
2023/12/06 05:39:10;;;;;;;31.30;18.80;;;4.00;99.90;;;;;;5017846;28;20037;-82
2023/12/06 05:41:36;;;;;;;29.40;18.53;;;4.00;99.90;;;;;;5035434;28;20036;-81
2023/12/06 05:44:04;;;;;;;31.13;19.20;;;3.90;99.90;;;;;;5035259;28;20033;-82
2023/12/06 05:46:29;;;;;;;28.50;18.33;;;4.00;99.90;;;;;;5035799;28;20025;-81
2023/12/06 05:48:55;;;;;;;31.70;19.40;;;3.90;99.90;;;;;;5035435;28;20117;-82
2023/12/06 05:51:21;;;;;;;32.90;20.47;;;4.00;99.90;;;;;;5035642;28;20071;-83
2023/12/06 05:53:47;;;;;;;31.73;19.33;;;4.00;99.90;;;;;;5017294;28;20409;-82
2023/12/06 05:56:13;;;;;;;31.87;19.07;;;4.00;99.90;;;;;;5017485;28;20044;-81
2023/12/06 05:58:39;;;;;;;32.67;19.07;;;4.00;99.90;;;;;;5035188;28;20045;-82
2023/12/06 06:01:05;;;;;;;30.83;19.30;;;4.00;99.90;;;;;;5034076;28;20108;-83
2023/12/06 06:03:31;;;;;;;31.47;18.87;;;4.00;99.90;;;;;;5035070;28;20033;-82
2023/12/06 06:05:56;;;;;;;28.80;18.43;;;4.00;99.90;;;;;;5034896;28;20045;-82
2023/12/06 06:08:22;;;;;;;27.80;18.03;;;4.00;99.90;;;;;;5017379;28;20371;-83
2023/12/06 06:10:47;;;;;;;30.50;19.90;;;4.10;99.90;;;;;;5017640;28;20041;-83
2023/12/06 06:13:13;;;;;;;29.63;18.47;;;4.00;99.90;;;;;;5034922;28;20029;-82
2023/12/06 06:15:39;;;;;;;28.00;17.40;;;4.10;99.90;;;;;;5035429;28;20095;-82
2023/12/06 06:18:05;;;;;;;31.40;18.53;;;4.10;99.90;;;;;;5023606;28;20492;-82
2023/12/06 06:20:32;;;;;;;28.43;17.23;;;4.10;99.90;;;;;;5036200;28;20103;-82
2023/12/06 06:22:58;;;;;;;32.20;19.20;;;4.10;99.90;;;;;;5052252;28;20571;-82
2023/12/06 06:25:24;;;;;;;26.50;17.13;;;4.00;99.90;;;;;;5036502;28;20060;-82
2023/12/06 06:27:49;;;;;;;30.67;18.70;;;4.10;99.90;;;;;;5036110;28;20120;-82
2023/12/06 06:30:15;;;;;;;29.87;19.20;;;4.10;99.90;;;;;;5054269;28;20029;-82
2023/12/06 06:32:41;;;;;;;30.63;18.87;;;4.10;99.90;;;;;;5036460;28;20029;-82
2023/12/06 06:35:07;;;;;;;28.20;17.20;;;4.20;99.90;;;;;;5054581;28;20040;-82
2023/12/06 06:37:34;;;;;;;30.67;18.27;;;4.20;99.90;;;;;;5069776;28;20444;-82
2023/12/06 06:39:59;;;;;;;30.33;18.97;;;4.20;99.90;;;;;;5054555;28;20033;-81
2023/12/06 06:42:25;;;;;;;28.93;17.77;;;4.20;99.90;;;;;;5054016;28;20082;-82
2023/12/06 06:44:55;;;;;;;28.17;17.43;;;4.20;99.90;;;;;;5053861;28;20083;-82
2023/12/06 06:47:21;;;;;;;25.70;16.37;;;4.20;99.90;;;;;;5036225;28;20132;-82
2023/12/06 06:49:47;;;;;;;29.10;18.43;;;4.20;99.90;;;;;;5052699;28;20127;-82
2023/12/06 06:52:12;;;;;;;29.13;17.60;;;4.20;99.90;;;;;;5054153;28;20029;-82
2023/12/06 06:54:38;;;;;;;27.27;17.00;;;4.30;99.90;;;;;;5053597;28;20124;-82
2023/12/06 06:57:04;;;;;;;27.43;17.87;;;4.20;99.90;;;;;;5053633;28;20045;-82
2023/12/06 06:59:29;;;;;;;30.90;18.27;;;4.20;99.90;;;;;;5046056;28;20392;-83
2023/12/06 07:01:55;;;;;;;27.73;16.87;;;4.30;99.90;;;;;;5060501;28;20451;-83
2023/12/06 07:04:21;;;;;;;29.33;17.60;;;4.30;99.90;;;;;;5062240;28;20029;-82
2023/12/06 07:06:46;;;;;;;25.97;16.30;;;4.30;99.90;;;;;;5044090;28;20036;-82
2023/12/06 07:09:12;;;;;;;28.00;16.60;;;4.40;99.90;;;;;;5052998;28;20079;-82
2023/12/06 07:11:38;;;;;;;29.17;18.17;;;4.30;99.90;;;;;;5052328;28;20472;-82
2023/12/06 07:14:03;;;;;;;31.40;17.87;;;4.40;99.90;;;;;;5050072;28;20523;-82
2023/12/06 07:16:29;;;;;;;31.37;18.60;;;4.40;99.90;;;;;;5043367;28;20542;-82
2023/12/06 07:18:54;;;;;;;26.83;16.60;;;4.40;99.90;;;;;;5053860;28;20039;-82
2023/12/06 07:21:20;;;;;;;28.20;16.80;;;4.40;99.90;;;;;;5053039;28;20488;-82
2023/12/06 07:23:46;;;;;;;27.10;17.37;;;4.40;99.90;;;;;;5040800;28;20025;-82
2023/12/06 07:26:11;;;;;;;31.30;19.17;;;4.40;99.90;;;;;;5053116;28;20057;-83
2023/12/06 07:28:37;;;;;;;33.20;19.33;;;4.40;99.90;;;;;;5053593;28;20492;-82
2023/12/06 07:31:03;;;;;;;33.23;20.10;;;4.40;99.90;;;;;;5046435;28;20037;-84
2023/12/06 07:33:29;;;;;;;29.73;17.63;;;4.40;99.90;;;;;;5043221;28;20055;-82
2023/12/06 07:35:54;;;;;;;33.13;18.63;;;4.50;99.90;;;;;;5052358;28;20156;-82
2023/12/06 07:38:21;;;;;;;29.93;18.73;;;4.50;99.90;;;;;;5052532;28;20062;-81
2023/12/06 07:40:47;;;;;;;30.33;19.50;;;4.50;99.90;;;;;;5053110;28;20032;-83
2023/12/06 07:43:13;;;;;;;32.07;17.73;;;4.50;99.90;;;;;;5052574;28;20485;-84
2023/12/06 07:45:39;;;;;;;28.30;17.57;;;4.50;99.90;;;;;;5031958;28;20022;-84
2023/12/06 07:48:05;;;;;;;29.03;18.77;;;4.50;99.90;;;;;;5033673;28;20038;-83
2023/12/06 07:50:30;;;;;;;27.63;16.73;;;4.50;99.90;;;;;;5032181;28;20032;-83
2023/12/06 07:52:56;;;;;;;26.57;16.43;;;4.50;99.90;;;;;;5033302;28;20034;-81
2023/12/06 07:55:22;;;;;;;27.73;17.90;;;4.60;99.90;;;;;;5031765;28;20494;-82
2023/12/06 07:57:48;;;;;;;25.80;16.67;;;4.50;99.90;;;;;;5033419;28;20488;-82
2023/12/06 08:00:15;;;;;;;27.17;16.07;;;4.50;99.90;;;;;;5031732;28;20068;-82
2023/12/06 08:02:42;;;;;;;26.37;15.73;;;4.50;99.90;;;;;;5032859;28;20026;-82
2023/12/06 08:05:11;;;;;;;25.83;16.07;;;4.70;99.90;;;;;;5031858;28;20033;-82
2023/12/06 08:07:37;;;;;;;25.00;15.13;;;4.60;99.90;;;;;;5031664;28;20137;-81
2023/12/06 08:10:13;;;;;;;26.27;15.57;;;4.60;99.90;;;;;;5051152;28;20029;-82
2023/12/06 08:12:39;;;;;;;27.30;15.00;;;4.60;99.90;;;;;;5035195;28;20040;-82
2023/12/06 08:15:06;;;;;;;24.90;14.63;;;4.70;99.90;;;;;;5052565;28;20033;-82
2023/12/06 08:17:32;;;;;;;25.13;15.33;;;4.70;99.90;;;;;;5034968;28;20029;-82
2023/12/06 08:19:58;;;;;;;27.00;16.33;;;4.70;99.90;;;;;;5034968;28;20059;-81
2023/12/06 08:22:23;;;;;;;24.53;15.43;;;4.70;99.90;;;;;;5034788;28;20041;-82
2023/12/06 08:24:50;;;;;;;28.40;15.43;;;4.70;99.90;;;;;;5053499;28;20120;-82
2023/12/06 08:27:17;;;;;;;23.30;14.50;;;4.70;99.90;;;;;;5052580;28;20025;-82
2023/12/06 08:29:42;;;;;;;24.93;14.67;;;4.80;99.90;;;;;;5052865;28;20032;-82
2023/12/06 08:32:08;;;;;;;23.77;14.47;;;4.80;99.90;;;;;;5034590;28;20033;-82
2023/12/06 08:34:34;;;;;;;25.73;15.10;;;4.80;99.90;;;;;;5034731;28;20476;-80
2023/12/06 08:36:59;;;;;;;23.87;14.17;;;4.90;99.90;;;;;;5035152;28;20052;-81
2023/12/06 08:39:25;;;;;;;24.70;14.90;;;4.80;99.90;;;;;;5034721;28;20029;-82
2023/12/06 08:41:50;;;;;;;26.70;15.63;;;4.80;99.90;;;;;;5051884;28;20194;-82
2023/12/06 08:44:16;;;;;;;25.90;16.33;;;4.80;99.90;;;;;;5034404;28;20065;-82
2023/12/06 08:46:42;;;;;;;32.20;15.77;;;4.90;99.90;;;;;;5052683;28;20055;-82
2023/12/06 08:49:08;;;;;;;27.03;15.73;;;4.90;99.90;;;;;;5034460;28;20108;-82
2023/12/06 08:51:34;;;;;;;26.93;15.93;;;4.90;99.90;;;;;;5034645;28;20037;-82
2023/12/06 08:53:59;;;;;;;23.03;12.43;;;4.90;99.90;;;;;;5034178;28;20083;-82
2023/12/06 08:56:25;;;;;;;25.40;14.30;;;5.00;99.90;;;;;;5037642;28;20039;-82
2023/12/06 08:58:50;;;;;;;26.27;13.77;;;5.00;99.90;;;;;;5038338;28;20378;-82
2023/12/06 09:01:16;;;;;;;27.27;12.73;;;5.10;99.90;;;;;;5056345;28;20134;-82
2023/12/06 09:03:42;;;;;;;21.77;12.87;;;5.00;99.90;;;;;;5038404;28;20117;-82
2023/12/06 09:06:09;;;;;;;22.60;12.33;;;5.10;99.90;;;;;;5055912;28;20120;-82
2023/12/06 09:08:34;;;;;;;21.93;13.47;;;5.00;99.90;;;;;;5038855;28;20519;-82
2023/12/06 09:11:00;;;;;;;22.23;13.07;;;5.10;99.90;;;;;;5037632;28;20033;-82
2023/12/06 09:13:26;;;;;;;22.17;13.33;;;5.20;99.90;;;;;;5038201;28;20069;-82
2023/12/06 09:15:52;;;;;;;20.20;11.67;;;5.10;99.90;;;;;;5037923;28;20450;-82
2023/12/06 09:18:18;;;;;;;23.50;13.43;;;5.10;99.90;;;;;;5038163;28;20124;-82
2023/12/06 09:20:43;;;;;;;22.83;12.70;;;5.10;99.90;;;;;;5037981;28;20090;-82
2023/12/06 09:23:09;;;;;;;19.87;12.97;;;5.20;99.90;;;;;;5056377;28;20101;-82
2023/12/06 09:25:35;;;;;;;22.73;11.50;;;5.20;99.90;;;;;;5055740;28;20537;-82
2023/12/06 09:28:03;;;;;;;20.43;12.33;;;5.30;99.90;;;;;;5037582;28;20120;-82
2023/12/06 09:30:29;;;;;;;21.57;13.03;;;5.20;99.90;;;;;;5055782;28;20499;-82
2023/12/06 09:32:56;;;;;;;22.93;13.07;;;5.30;99.90;;;;;;5055716;28;20021;-81
2023/12/06 09:35:22;;;;;;;21.23;12.33;;;5.30;99.90;;;;;;5055740;28;20129;-82
2023/12/06 09:37:49;;;;;;;23.43;13.60;;;5.30;99.90;;;;;;5055105;28;20035;-82
2023/12/06 09:40:14;;;;;;;26.20;14.33;;;5.40;99.90;;;;;;5037012;28;20053;-82
2023/12/06 09:42:44;;;;;;;24.07;13.70;;;5.40;99.90;;;;;;5047816;28;20067;-82
2023/12/06 09:45:10;;;;;;;21.70;13.00;;;5.50;99.90;;;;;;5057228;28;20396;-82
2023/12/06 09:47:36;;;;;;;24.27;14.60;;;5.50;99.90;;;;;;5046236;28;20025;-82
2023/12/06 09:50:01;;;;;;;22.53;13.20;;;5.50;99.90;;;;;;5056279;28;20033;-82
2023/12/06 09:52:28;;;;;;;21.53;13.20;;;5.60;99.90;;;;;;5047487;28;20058;-82
2023/12/06 09:54:55;;;;;;;21.90;13.47;;;5.60;99.90;;;;;;5054797;28;20041;-82
2023/12/06 09:57:20;;;;;;;19.87;11.67;;;5.80;99.90;;;;;;5055526;28;20033;-82
2023/12/06 09:59:46;;;;;;;18.63;11.43;;;6.20;99.90;;;;;;5055449;28;20106;-83
2023/12/06 10:02:12;;;;;;;17.03;9.37;;;6.70;99.90;;;;;;5037289;28;20469;-82
2023/12/06 10:04:37;;;;;;;15.27;7.93;;;7.30;99.90;;;;;;5055044;28;20033;-83
2023/12/06 10:07:03;;;;;;;14.00;8.30;;;7.80;99.90;;;;;;5054607;28;20064;-83
2023/12/06 10:09:29;;;;;;;12.73;7.53;;;8.40;99.90;;;;;;5055075;28;20036;-83
2023/12/06 10:12:11;;;;;;;12.80;7.53;;;8.80;99.90;;;;;;5055571;28;20512;-83
2023/12/06 10:14:37;;;;;;;13.45;7.13;;;9.30;99.90;;;;;;5055038;28;20029;-82
2023/12/06 10:17:03;;;;;;;10.73;6.80;;;9.60;99.90;;;;;;5054872;28;20029;-83
2023/12/06 10:19:32;;;;;;;12.63;7.93;;;9.90;99.90;;;;;;5054719;28;20044;-83
2023/12/06 10:21:59;;;;;;;11.63;7.15;;;10.10;99.90;;;;;;5054757;28;20036;-83
2023/12/06 10:24:26;;;;;;;13.52;7.47;;;10.30;99.90;;;;;;5053316;28;20075;-83
2023/12/06 10:27:10;;;;;;;14.02;7.32;;;10.40;99.90;;;;;;5053252;28;20033;-83
2023/12/06 10:29:36;;;;;;;12.55;7.00;;;10.40;99.90;;;;;;5053944;28;20078;-83
2023/12/06 10:32:02;;;;;;;13.90;7.22;;;10.40;99.90;;;;;;5053556;28;20045;-83
2023/12/06 10:34:28;;;;;;;16.17;8.43;;;10.20;99.90;;;;;;5054883;28;20072;-83
2023/12/06 10:36:55;;;;;;;14.50;8.57;;;10.10;99.90;;;;;;5054939;28;20104;-83
2023/12/06 10:39:22;;;;;;;12.30;7.80;;;10.20;99.50;;;;;;5054580;28;20044;-83
2023/12/06 10:41:49;;;;;;;13.02;7.03;;;10.20;99.80;;;;;;5053053;28;20033;-83
2023/12/06 10:44:15;;;;;;;12.80;7.15;;;10.30;98.90;;;;;;5053378;28;20453;-84
2023/12/06 10:46:43;;;;;;;11.85;6.53;;;10.40;98.50;;;;;;5052987;28;20060;-83
2023/12/06 10:49:10;;;;;;;14.80;7.40;;;10.50;98.80;;;;;;5037061;28;20025;-83
2023/12/06 10:51:37;;;;;;;15.02;7.05;;;10.70;97.60;;;;;;5054758;28;20534;-82
2023/12/06 10:54:04;;;;;;;12.27;6.45;;;10.90;96.70;;;;;;5052823;28;20073;-82
2023/12/06 10:56:32;;;;;;;11.23;6.10;;;11.10;96.70;;;;;;5035720;28;20036;-83
2023/12/06 10:59:03;;;;;;;17.42;6.22;;;11.30;96.30;;;;;;5052399;28;20028;-83
2023/12/06 11:01:31;;;;;;;11.52;6.30;;;11.50;96.40;;;;;;5053723;28;20438;-83
2023/12/06 11:03:58;;;;;;;10.40;6.25;;;11.60;95.60;;;;;;5053181;28;20512;-81
2023/12/06 11:06:46;;;;;;;10.18;6.25;;;11.70;94.80;;;;;;5051609;28;20025;-82
2023/12/06 11:09:27;;;;;;;11.85;5.53;;;11.90;93.60;;;;;;5066436;28;20409;-82
2023/12/06 11:12:14;;;;;;;12.15;6.03;;;12.00;92.70;;;;;;5070542;28;20029;-81
2023/12/06 11:15:09;;;;;;;10.70;4.93;;;12.10;91.60;;;;;;5058143;28;20033;-81
2023/12/06 11:18:04;;;;;;;11.18;5.70;;;12.20;91.10;;;;;;5051831;28;20082;-81
2023/12/06 11:20:31;;;;;;;10.23;5.60;;;12.10;89.90;;;;;;5052385;28;20033;-81
2023/12/06 11:22:56;;;;;;;8.82;5.45;;;12.00;89.10;;;;;;5041586;28;20039;-81
2023/12/06 11:25:22;;;;;;;9.43;5.50;;;12.00;88.30;;;;;;5054331;28;20108;-82
2023/12/06 11:27:49;;;;;;;10.05;4.88;;;12.00;87.40;;;;;;5052145;28;20033;-81
2023/12/06 11:30:18;;;;;;;9.88;6.07;;;12.00;87.90;;;;;;5052911;28;20147;-81
2023/12/06 11:32:45;;;;;;;9.35;5.43;;;12.00;86.50;;;;;;5044382;28;20029;-80
2023/12/06 11:35:12;;;;;;;10.30;5.65;;;11.90;85.00;;;;;;5040781;28;20032;-81
2023/12/06 11:37:37;;;;;;;9.05;4.95;;;11.70;83.80;;;;;;5052848;28;20540;-80
2023/12/06 11:40:18;;;;;;;9.88;5.72;;;11.40;83.30;;;;;;5042685;28;20132;-80
2023/12/06 11:42:52;;;;;;;11.65;6.13;;;11.10;82.80;;;;;;5051357;28;20063;-81
2023/12/06 11:45:28;;;;;;;11.40;6.13;;;10.80;82.20;;;;;;5051430;28;20045;-80
2023/12/06 11:47:54;;;;;;;19.27;7.60;;;10.60;82.50;;;;;;5065022;28;20397;-81
2023/12/06 11:50:21;;;;;;;12.27;7.07;;;10.40;82.40;;;;;;5034139;28;20024;-80
2023/12/06 11:52:52;;;;;;;12.90;6.97;;;10.20;82.90;;;;;;5052846;28;20029;-80
2023/12/06 11:55:19;;;;;;;13.87;7.83;;;10.00;83.00;;;;;;5052378;28;20073;-81
2023/12/06 11:58:01;;;;;;;16.50;7.83;;;9.80;83.20;;;;;;5051723;28;20531;-81
2023/12/06 12:00:29;;;;;;;12.43;6.97;;;9.70;84.40;;;;;;5050712;28;20025;-80
2023/12/06 12:02:56;;;;;;;11.00;5.97;;;10.00;86.30;;;;;;5051387;28;20036;-81
2023/12/06 12:05:24;;;;;;;12.52;6.05;;;10.50;87.80;;;;;;5051871;28;20025;-81
2023/12/06 12:07:49;;;;;;;10.02;5.50;;;11.20;88.40;;;;;;5051370;28;20477;-81
2023/12/06 12:10:16;;;;;;;12.90;5.97;;;11.40;86.30;;;;;;5052140;28;20160;-81
2023/12/06 12:12:42;;;;;;;12.93;6.32;;;11.40;84.80;;;;;;5050861;28;20021;-81
2023/12/06 12:15:07;;;;;;;14.60;7.32;;;11.30;83.20;;;;;;5052761;28;20528;-81
2023/12/06 12:17:35;;;;;;;10.90;5.65;;;11.00;81.80;;;;;;5052611;28;20033;-80
2023/12/06 12:20:03;;;;;;;11.50;6.60;;;10.80;82.50;;;;;;5052042;28;20057;-80
2023/12/06 12:22:29;;;;;;;13.63;6.32;;;10.60;81.70;;;;;;5034348;28;20041;-80
2023/12/06 12:24:55;;;;;;;13.50;7.40;;;10.40;82.20;;;;;;5050991;28;20041;-81
2023/12/06 12:27:21;;;;;;;14.32;7.97;;;10.30;83.10;;;;;;5038816;28;20078;-81
2023/12/06 12:29:54;;;;;;;14.80;7.47;;;10.50;83.90;;;;;;5051545;28;20033;-81
2023/12/06 12:32:20;;;;;;;12.40;6.93;;;10.50;83.90;;;;;;5054975;28;20477;-80
2023/12/06 12:34:46;;;;;;;13.53;7.40;;;10.60;84.40;;;;;;5055948;28;20044;-80